createdAt,value
2018-06-04T00:01:58.946Z,100846.67
2018-06-04T00:05:02.268Z,100843.97
2018-06-04T00:08:05.746Z,100848.76
2018-06-04T00:11:08.944Z,100842.48
2018-06-04T00:14:12.147Z,100842.61
2018-06-04T00:17:15.335Z,100843.92
2018-06-04T00:20:18.506Z,100844.11
2018-06-04T00:23:21.690Z,100836.00
2018-06-04T00:26:24.841Z,100827.12
2018-06-04T00:29:28.019Z,100825.03
2018-06-04T00:32:31.184Z,100822.87
2018-06-04T00:35:34.348Z,100825.67
2018-06-04T00:38:37.498Z,100827.50
2018-06-04T00:41:40.676Z,100824.84
2018-06-04T00:44:43.957Z,100835.70
2018-06-04T00:47:47.214Z,100831.26
2018-06-04T00:50:50.408Z,100830.25
2018-06-04T00:53:53.584Z,100824.72
2018-06-04T00:56:56.817Z,100823.05
2018-06-04T00:59:59.999Z,100830.31
2018-06-04T01:03:03.226Z,100842.25
2018-06-04T01:06:06.405Z,100830.36
2018-06-04T01:09:09.540Z,100834.68
2018-06-04T01:12:12.754Z,100838.34
2018-06-04T01:15:15.927Z,100830.03
2018-06-04T01:18:19.091Z,100828.27
2018-06-04T01:21:22.277Z,100828.96
2018-06-04T01:24:25.454Z,100828.50
2018-06-04T01:27:28.639Z,100829.34
2018-06-04T01:30:31.822Z,100821.56
2018-06-04T01:33:35.014Z,100816.97
2018-06-04T01:36:38.195Z,100827.15
2018-06-04T01:39:41.367Z,100818.06
2018-06-04T01:42:44.563Z,100814.14
2018-06-04T01:45:47.711Z,100813.41
2018-06-04T01:48:50.882Z,100816.54
2018-06-04T01:51:54.047Z,100812.25
2018-06-04T01:54:57.274Z,100808.28
2018-06-04T01:58:00.446Z,100808.94
2018-06-04T02:01:03.612Z,100806.84
2018-06-04T02:04:06.768Z,100787.88
2018-06-04T02:07:09.937Z,100805.64
2018-06-04T02:10:13.061Z,100798.45
2018-06-04T02:13:16.210Z,100799.64
2018-06-04T02:16:19.402Z,100804.94
2018-06-04T02:19:22.523Z,100799.65
2018-06-04T02:22:25.662Z,100800.98
2018-06-04T02:25:28.863Z,100795.64
2018-06-04T02:28:31.979Z,100798.38
2018-06-04T02:31:35.201Z,100795.53
2018-06-04T02:34:38.337Z,100793.76
2018-06-04T02:37:41.439Z,100788.48
2018-06-04T02:40:44.620Z,100796.26
2018-06-04T02:43:47.775Z,100794.91
2018-06-04T02:46:50.913Z,100794.20
2018-06-04T02:49:54.500Z,100800.39
2018-06-04T02:52:57.634Z,100805.12
2018-06-04T02:56:00.847Z,100803.52
2018-06-04T02:59:04.040Z,100796.02
2018-06-04T03:02:07.351Z,100786.51
2018-06-04T03:05:10.505Z,100798.33
2018-06-04T03:08:13.722Z,100791.77
2018-06-04T03:11:16.880Z,100796.48
2018-06-04T03:14:20.114Z,100791.05
2018-06-04T03:17:23.294Z,100784.55
2018-06-04T03:20:26.485Z,100785.07
2018-06-04T03:23:29.822Z,100789.73
2018-06-04T03:26:34.180Z,100778.45
2018-06-04T03:29:37.377Z,100769.97
2018-06-04T03:32:40.531Z,100775.16
2018-06-04T03:35:43.686Z,100775.29
2018-06-04T03:38:46.809Z,100774.22
2018-06-04T03:41:50.062Z,100768.41
2018-06-04T03:44:53.531Z,100768.27
2018-06-04T03:47:57.872Z,100762.97
2018-06-04T03:51:01.128Z,100759.76
2018-06-04T03:54:04.349Z,100752.69
2018-06-04T03:57:07.498Z,100757.76
2018-06-04T04:00:10.649Z,100749.59
2018-06-04T04:03:13.820Z,100747.01
2018-06-04T04:06:16.969Z,100753.35
2018-06-04T04:09:20.187Z,100745.68
2018-06-04T04:12:23.339Z,100732.70
2018-06-04T04:15:26.584Z,100751.86
2018-06-04T04:18:29.752Z,100753.72
2018-06-04T04:21:32.991Z,100749.79
2018-06-04T04:24:36.427Z,100748.39
2018-06-04T04:27:39.668Z,100735.41
2018-06-04T04:30:42.885Z,100745.59
2018-06-04T04:33:46.066Z,100745.96
2018-06-04T04:36:49.204Z,100750.38
2018-06-04T04:39:52.527Z,100742.66
2018-06-04T04:42:55.743Z,100753.47
2018-06-04T04:45:58.949Z,100761.58
2018-06-04T04:49:02.125Z,100745.85
2018-06-04T04:52:05.352Z,100740.05
2018-06-04T04:55:08.538Z,100739.03
2018-06-04T04:58:11.722Z,100745.44
2018-06-04T05:01:14.916Z,100748.78
2018-06-04T05:04:18.100Z,100748.78
2018-06-04T05:07:21.336Z,100750.53
2018-06-04T05:10:24.520Z,100734.77
2018-06-04T05:13:27.698Z,100750.96
2018-06-04T05:16:30.897Z,100723.72
2018-06-04T05:19:34.134Z,100750.29
2018-06-04T05:22:37.299Z,100743.14
2018-06-04T05:25:40.476Z,100740.88
2018-06-04T05:28:43.622Z,100744.44
2018-06-04T05:31:46.868Z,100742.22
2018-06-04T05:34:50.012Z,100739.28
2018-06-04T05:37:55.164Z,100741.78
2018-06-04T05:40:58.325Z,100740.59
2018-06-04T05:44:01.477Z,100733.23
2018-06-04T05:47:04.633Z,100738.78
2018-06-04T05:50:07.772Z,100733.19
2018-06-04T05:53:10.931Z,100738.34
2018-06-04T05:56:14.135Z,100733.20
2018-06-04T05:59:17.271Z,100736.78
2018-06-04T06:02:20.459Z,100733.13
2018-06-04T06:05:23.691Z,100730.08
2018-06-04T06:08:27.711Z,100732.34
2018-06-04T06:11:30.963Z,100728.02
2018-06-04T06:14:34.133Z,100721.67
2018-06-04T06:17:37.307Z,100728.17
2018-06-04T06:20:40.507Z,100723.99
2018-06-04T06:23:43.743Z,100728.98
2018-06-04T06:26:46.935Z,100722.70
2018-06-04T06:29:50.063Z,100719.27
2018-06-04T06:32:53.254Z,100710.86
2018-06-04T06:35:56.418Z,100708.33
2018-06-04T06:38:59.549Z,100713.69
2018-06-04T06:42:02.741Z,100707.58
2018-06-04T06:45:05.954Z,100706.27
2018-06-04T06:48:09.140Z,100705.02
2018-06-04T06:51:12.311Z,100703.62
2018-06-04T06:54:15.525Z,100701.34
2018-06-04T06:57:18.708Z,100702.52
2018-06-04T07:00:21.935Z,100701.08
2018-06-04T07:03:25.118Z,100702.95
2018-06-04T07:06:28.270Z,100706.33
2018-06-04T07:09:31.464Z,100690.40
2018-06-04T07:12:34.642Z,100689.59
2018-06-04T07:15:37.813Z,100695.16
2018-06-04T07:18:41.786Z,100687.18
2018-06-04T07:21:45.025Z,100688.87
2018-06-04T07:24:49.131Z,100688.03
2018-06-04T07:27:52.333Z,100686.84
2018-06-04T07:30:55.504Z,100684.69
2018-06-04T07:33:58.775Z,100682.46
2018-06-04T07:37:02.040Z,100688.05
2018-06-04T07:40:05.291Z,100683.36
2018-06-04T07:43:08.511Z,100672.52
2018-06-04T07:46:11.729Z,100680.30
2018-06-04T07:49:16.109Z,100677.24
2018-06-04T07:52:19.749Z,100679.59
2018-06-04T07:55:23.002Z,100677.87
2018-06-04T07:58:26.239Z,100670.76
2018-06-04T08:01:29.462Z,100673.47
2018-06-04T08:04:32.696Z,100660.83
2018-06-04T08:07:36.019Z,100658.25
2018-06-04T08:10:39.938Z,100662.06
2018-06-04T08:13:43.252Z,100656.91
2018-06-04T08:16:46.393Z,100654.84
2018-06-04T08:19:49.582Z,100654.27
2018-06-04T08:22:52.741Z,100657.19
2018-06-04T08:25:56.506Z,100649.73
2018-06-04T08:28:59.697Z,100654.03
2018-06-04T08:32:02.863Z,100653.87
2018-06-04T08:35:06.080Z,100656.66
2018-06-04T08:38:09.316Z,100652.09
2018-06-04T08:41:12.478Z,100655.34
2018-06-04T08:44:15.659Z,100651.60
2018-06-04T08:47:18.842Z,100646.07
2018-06-04T08:50:22.066Z,100648.67
2018-06-04T08:53:25.330Z,100652.05
2018-06-04T08:56:28.588Z,100646.34
2018-06-04T08:59:31.892Z,100639.42
2018-06-04T09:02:35.153Z,100640.71
2018-06-04T09:05:38.440Z,100634.37
2018-06-04T09:08:41.722Z,100637.94
2018-06-04T09:11:45.005Z,100638.61
2018-06-04T09:14:48.458Z,100633.43
2018-06-04T09:17:51.880Z,100629.48
2018-06-04T09:20:55.033Z,100631.20
2018-06-04T09:23:58.378Z,100627.60
2018-06-04T09:27:01.572Z,100627.92
2018-06-04T09:30:04.845Z,100626.16
2018-06-04T09:33:08.102Z,100630.80
2018-06-04T09:36:12.761Z,100619.34
2018-06-04T09:39:16.085Z,100622.87
2018-06-04T09:42:19.280Z,100616.36
2018-06-04T09:45:23.638Z,100613.95
2018-06-04T09:48:26.861Z,100623.08
2018-06-04T09:51:30.141Z,100608.23
2018-06-04T09:54:33.351Z,100604.75
2018-06-04T09:57:36.579Z,100604.37
2018-06-04T10:00:39.968Z,100602.66
2018-06-04T10:03:43.217Z,100608.81
2018-06-04T10:06:47.330Z,100605.47
2018-06-04T10:09:50.588Z,100607.91
2018-06-04T10:12:53.825Z,100598.69
2018-06-04T10:15:57.847Z,100597.98
2018-06-04T10:19:01.099Z,100601.20
2018-06-04T10:22:04.413Z,100590.50
2018-06-04T10:25:07.706Z,100595.64
2018-06-04T10:28:11.023Z,100600.90
2018-06-04T10:31:15.253Z,100588.48
2018-06-04T10:34:18.447Z,100589.75
2018-06-04T10:37:21.668Z,100587.20
2018-06-04T10:40:24.926Z,100574.39
2018-06-04T10:43:28.106Z,100574.05
2018-06-04T10:46:31.415Z,100573.70
2018-06-04T10:49:35.894Z,100567.00
2018-06-04T10:52:39.198Z,100569.81
2018-06-04T10:55:42.414Z,100563.33
2018-06-04T10:58:45.709Z,100563.43
2018-06-04T11:01:48.925Z,100555.64
2018-06-04T11:04:52.152Z,100553.34
2018-06-04T11:07:55.290Z,100552.30
2018-06-04T11:10:58.576Z,100545.30
2018-06-04T11:14:01.728Z,100545.37
2018-06-04T11:17:04.967Z,100550.91
2018-06-04T11:20:08.161Z,100546.89
2018-06-04T11:23:11.416Z,100546.25
2018-06-04T11:26:14.644Z,100548.25
2018-06-04T11:29:17.844Z,100543.34
2018-06-04T11:32:21.137Z,100547.43
2018-06-04T11:35:24.412Z,100536.08
2018-06-04T11:38:27.729Z,100528.27
2018-06-04T11:41:31.033Z,100532.05
2018-06-04T11:44:34.292Z,100519.22
2018-06-04T11:47:37.515Z,100520.31
2018-06-04T11:50:40.739Z,100523.59
2018-06-04T11:53:43.972Z,100520.05
2018-06-04T11:56:47.267Z,100526.89
2018-06-04T11:59:50.592Z,100520.39
2018-06-04T12:02:53.962Z,100518.46
2018-06-04T12:05:57.175Z,100512.48
2018-06-04T12:09:01.071Z,100517.77
2018-06-04T12:12:04.325Z,100513.20
2018-06-04T12:15:07.561Z,100508.09
2018-06-04T12:18:10.793Z,100516.35
2018-06-04T12:21:14.344Z,100511.44
2018-06-04T12:24:17.583Z,100511.54
2018-06-04T12:27:20.795Z,100497.03
2018-06-04T12:30:24.062Z,100494.02
2018-06-04T12:33:27.437Z,100495.33
2018-06-04T12:36:30.826Z,100492.27
2018-06-04T12:39:34.160Z,100489.30
2018-06-04T12:42:37.407Z,100480.16
2018-06-04T12:45:40.595Z,100483.24
2018-06-04T12:48:43.936Z,100482.55
2018-06-04T12:51:47.152Z,100470.55
2018-06-04T12:54:50.462Z,100478.23
2018-06-04T12:57:54.804Z,100464.81
2018-06-04T13:00:58.164Z,100469.51
2018-06-04T13:04:01.405Z,100462.30
2018-06-04T13:07:04.742Z,100451.66
2018-06-04T13:10:11.662Z,100459.28
2018-06-04T13:13:14.935Z,100462.53
2018-06-04T13:16:18.430Z,100461.81
2018-06-04T13:19:22.714Z,100460.17
2018-06-04T13:22:25.975Z,100446.77
2018-06-04T13:25:29.207Z,100440.39
2018-06-04T13:28:32.429Z,100434.97
2018-06-04T13:31:35.683Z,100440.56
2018-06-04T13:34:38.930Z,100436.66
2018-06-04T13:37:42.123Z,100431.29
2018-06-04T13:40:45.405Z,100432.02
2018-06-04T13:43:48.633Z,100423.59
2018-06-04T13:46:51.902Z,100412.82
2018-06-04T13:49:55.373Z,100415.28
2018-06-04T13:52:58.633Z,100409.73
2018-06-04T13:56:02.185Z,100420.75
2018-06-04T13:59:06.116Z,100412.67
2018-06-04T14:02:09.456Z,100409.39
2018-06-04T14:05:12.924Z,100394.16
2018-06-04T14:59:04.689Z,100346.31
2018-06-04T15:02:08.166Z,100343.38
2018-06-04T15:05:11.494Z,100337.34
2018-06-04T15:08:14.826Z,100341.80
2018-06-04T15:11:18.469Z,100335.41
2018-06-04T15:14:21.900Z,100336.84
2018-06-04T15:17:25.253Z,100330.85
2018-06-04T15:20:28.871Z,100323.40
2018-06-04T15:23:32.817Z,100329.73
2018-06-04T15:26:37.348Z,100330.66
2018-06-04T15:29:40.681Z,100330.75
2018-06-04T15:32:44.024Z,100334.05
2018-06-04T15:35:47.939Z,100328.77
2018-06-04T15:38:51.319Z,100319.19
2018-06-04T15:41:54.609Z,100327.29
2018-06-04T15:44:57.919Z,100329.69
2018-06-04T15:48:01.206Z,100326.31
2018-06-04T15:51:04.720Z,100322.77
2018-06-04T15:54:08.101Z,100319.28
2018-06-04T15:57:13.882Z,100323.36
2018-06-04T16:00:17.314Z,100317.58
2018-06-04T16:03:20.983Z,100318.36
2018-06-04T16:06:24.710Z,100312.95
2018-06-04T16:09:28.008Z,100308.92
2018-06-04T16:12:32.025Z,100307.69
2018-06-04T16:15:36.489Z,100306.89
2018-06-04T16:18:39.877Z,100306.58
2018-06-04T16:21:43.320Z,100297.78
2018-06-04T16:24:46.763Z,100305.08
2018-06-04T16:27:50.072Z,100301.88
2018-06-04T16:30:53.580Z,100303.69
2018-06-04T16:33:57.152Z,100295.97
2018-06-04T16:37:01.331Z,100299.06
2018-06-04T16:40:05.576Z,100299.47
2018-06-04T16:43:09.225Z,100304.83
2018-06-04T16:46:12.816Z,100294.34
2018-06-04T16:49:16.362Z,100291.80
2018-06-04T16:52:19.785Z,100286.90
2018-06-04T16:55:23.892Z,100283.78
2018-06-04T16:58:28.118Z,100281.52
2018-06-04T17:01:32.306Z,100283.43
2018-06-04T17:04:35.730Z,100282.22
2018-06-04T17:07:39.204Z,100283.20
2018-06-04T17:10:42.625Z,100285.73
2018-06-04T17:13:46.273Z,100276.77
2018-06-04T17:16:49.809Z,100275.02
2018-06-04T17:19:53.389Z,100282.45
2018-06-04T17:22:57.289Z,100278.25
2018-06-04T17:26:00.830Z,100272.48
2018-06-04T17:29:04.489Z,100276.41
2018-06-04T17:32:07.972Z,100280.30
2018-06-04T17:35:11.456Z,100277.45
2018-06-04T17:38:15.093Z,100272.00
2018-06-04T17:41:18.501Z,100271.05
2018-06-04T17:44:21.923Z,100269.03
2018-06-04T17:47:26.339Z,100269.96
2018-06-04T17:50:29.872Z,100276.81
2018-06-04T17:53:33.481Z,100275.03
2018-06-04T17:56:36.912Z,100269.03
2018-06-04T17:59:40.521Z,100266.44
2018-06-04T18:02:44.252Z,100274.43
2018-06-04T18:05:47.752Z,100265.32
2018-06-04T18:08:51.911Z,100266.53
2018-06-04T18:11:55.384Z,100268.81
2018-06-04T18:14:58.968Z,100268.55
2018-06-04T18:18:02.376Z,100252.21
2018-06-04T18:21:05.717Z,100254.75
2018-06-04T18:24:09.101Z,100260.95
2018-06-04T18:27:13.149Z,100262.11
2018-06-04T18:30:16.898Z,100255.45
2018-06-04T18:33:20.484Z,100255.77
2018-06-04T18:36:24.003Z,100254.59
2018-06-04T18:39:27.931Z,100255.30
2018-06-04T18:42:31.603Z,100263.09
2018-06-04T18:45:35.287Z,100260.68
2018-06-04T18:48:38.741Z,100263.02
2018-06-04T18:51:42.268Z,100259.05
2018-06-04T18:54:46.748Z,100264.41
2018-06-04T18:57:50.932Z,100264.62
2018-06-04T19:00:54.420Z,100268.91
2018-06-04T19:03:58.096Z,100267.74
2018-06-04T19:07:01.649Z,100264.62
2018-06-04T19:10:05.324Z,100264.22
2018-06-04T19:13:08.947Z,100266.31
2018-06-04T19:16:12.449Z,100276.52
2018-06-04T19:19:15.879Z,100275.69
2018-06-04T19:22:19.677Z,100285.26
2018-06-04T19:25:24.105Z,100288.28
2018-06-04T19:28:27.642Z,100288.15
2018-06-04T19:31:31.310Z,100297.28
2018-06-04T19:34:34.801Z,100304.89
2018-06-04T19:37:38.212Z,100301.04
2018-06-04T19:40:41.805Z,100300.26
2018-06-04T19:43:45.280Z,100310.45
2018-06-04T19:46:48.806Z,100308.19
2018-06-04T19:49:52.282Z,100319.63
2018-06-04T19:52:56.006Z,100323.03
2018-06-04T19:55:59.485Z,100326.29
2018-06-04T19:59:02.898Z,100324.44
2018-06-04T20:02:06.451Z,100332.25
2018-06-04T20:05:09.833Z,100339.84
2018-06-04T20:08:13.297Z,100335.89
2018-06-04T20:11:16.909Z,100336.28
2018-06-04T20:14:20.551Z,100339.45
2018-06-04T20:17:24.182Z,100341.64
2018-06-04T20:20:28.029Z,100338.27
2018-06-04T20:23:31.836Z,100341.89
2018-06-04T20:26:36.224Z,100342.31
2018-06-04T20:29:39.557Z,100345.81
2018-06-04T20:32:42.847Z,100346.70
2018-06-04T20:35:46.128Z,100352.98
2018-06-04T20:38:49.498Z,100358.70
2018-06-04T20:41:53.913Z,100363.91
2018-06-04T20:44:57.207Z,100362.37
2018-06-04T20:48:00.526Z,100369.31
2018-06-04T20:51:03.945Z,100372.34
2018-06-04T20:54:07.269Z,100376.42
2018-06-04T20:57:11.350Z,100381.84
2018-06-04T21:00:14.580Z,100380.82
2018-06-04T21:03:18.025Z,100386.28
2018-06-04T21:06:21.370Z,100385.30
2018-06-04T21:09:24.758Z,100380.73
2018-06-04T21:12:28.052Z,100382.98
2018-06-04T21:15:31.283Z,100383.00
2018-06-04T21:18:34.554Z,100386.19
2018-06-04T21:21:37.848Z,100384.02
2018-06-04T21:24:41.095Z,100384.98
2018-06-04T21:27:44.415Z,100388.95
2018-06-04T21:30:47.655Z,100393.69
2018-06-04T21:33:50.948Z,100400.63
2018-06-04T21:36:54.180Z,100403.20
2018-06-04T21:39:57.413Z,100401.31
2018-06-04T21:43:00.677Z,100402.85
2018-06-04T21:46:04.001Z,100410.81
2018-06-04T21:49:07.295Z,100405.39
2018-06-04T21:52:10.630Z,100411.00
2018-06-04T21:55:13.906Z,100412.70
2018-06-04T21:58:17.241Z,100422.23
2018-06-04T22:01:20.479Z,100421.97
2018-06-04T22:04:23.699Z,100421.35
2018-06-04T22:07:26.907Z,100432.60
2018-06-04T22:10:30.100Z,100412.91
2018-06-04T22:13:33.276Z,100427.20
2018-06-04T22:16:36.499Z,100432.60
2018-06-04T22:19:39.696Z,100431.62
2018-06-04T22:22:43.062Z,100440.44
2018-06-04T22:25:46.292Z,100439.76
2018-06-04T22:28:49.480Z,100440.95
2018-06-04T22:31:52.664Z,100434.31
2018-06-04T22:34:55.860Z,100437.45
2018-06-04T22:37:59.080Z,100440.52
2018-06-04T22:41:02.388Z,100442.07
2018-06-04T22:44:05.755Z,100447.73
2018-06-04T22:47:08.939Z,100451.02
2018-06-04T22:50:12.194Z,100442.84
2018-06-04T22:53:15.385Z,100448.50
2018-06-04T22:56:18.533Z,100428.27
2018-06-04T22:59:21.719Z,100445.72
2018-06-04T23:02:24.971Z,100444.05
2018-06-04T23:05:28.251Z,100436.41
2018-06-04T23:08:31.438Z,100444.85
2018-06-04T23:11:34.624Z,100444.85
2018-06-04T23:14:37.796Z,100449.56
2018-06-04T23:17:40.990Z,100457.37
2018-06-04T23:20:44.132Z,100454.28
2018-06-04T23:23:47.350Z,100463.36
2018-06-04T23:26:50.507Z,100459.77
2018-06-04T23:29:53.694Z,100462.05
2018-06-04T23:32:56.876Z,100467.78
2018-06-04T23:36:00.052Z,100467.50
2018-06-04T23:39:03.254Z,100471.13
2018-06-04T23:42:06.435Z,100450.91
2018-06-04T23:45:09.570Z,100471.23
2018-06-04T23:48:12.759Z,100462.05
2018-06-04T23:51:15.870Z,100459.69
2018-06-04T23:54:19.054Z,100457.35
2018-06-04T23:57:22.216Z,100459.89
